This demonstration page uses our WeatherBlox Daily Observations layout. Learn more.

39.08367, -84.50855

Hourly Observations for August 19, 2019

Temp ( °F °C ) Dew Point ( °F °C ) Humidity (%) Winds ( mph kmh ) Pressure ( in mb ) Visibility ( mi km ) Precip ( " mm )
12:53 am 00:53 Clear 77 25 64 17.8 64 64 NNW 9 15 29.97 1015 10 16.09344 0 0
1:53 am 01:53 Clear 72 22.2 67 19.4 84 84 SE 3 6 29.97 1015 10 16.09344 0.001 0.001
2:53 am 02:53 Mostly Clear 73 22.8 67 19.4 81 81 E 6 9 29.97 1015 10 16.09344 0 0
3:53 am 03:53 Mostly Cloudy 73 22.8 68 20 84 84 Calm 29.94 1014 10 16.09344 0.001 0.001
4:53 am 04:53 Partly Cloudy 71 21.7 67 19.4 87 87 WSW 3 6 29.97 1015 10 16.09344 0 0
5:53 am 05:53 Clear 69 20.6 67 19.4 93 93 Calm 29.97 1015 10 16.09344 0 0
6:53 am 06:53 Clear 70 21.1 67 19.4 90 90 Calm 29.97 1015 10 16.09344 0 0
7:53 am 07:53 Sunny 72 22.2 68 20 87 87 SSW 5 7 30 1016 10 16.09344 0 0
8:53 am 08:53 Mostly Sunny 75 23.9 68 20 79 79 SSW 3 6 30.03 1017 10 16.09344 0 0
9:53 am 09:53 Sunny 80 26.7 68 20 67 67 Calm 30.03 1017 10 16.09344 0 0
10:53 am 10:53 Sunny 84 28.9 69 20.6 61 61 Calm 30.03 1017 10 16.09344 0 0
11:53 am 11:53 Sunny 85 29.4 69 20.6 59 59 SSE 6 9 30.03 1017 10 16.09344 0 0
12:53 pm 12:53 Mostly Sunny 88 31.1 70 21.1 55 55 Calm 30.03 1017 10 16.09344 0 0
1:53 pm 13:53 Mostly Sunny 90 32.2 71 21.7 54 54 ESE 3 6 30 1016 10 16.09344 0 0
2:53 pm 14:53 Partly Cloudy 91 32.8 71 21.7 52 52 Calm 30 1016 10 16.09344 0 0
3:53 pm 15:53 Partly Cloudy 90 32.2 71 21.7 54 54 SSE 3 6 29.97 1015 10 16.09344 0 0
4:53 pm 16:53 Partly Cloudy 90 32.2 70 21.1 52 52 SE 5 7 29.97 1015 10 16.09344 0 0
5:53 pm 17:53 Mostly Sunny 90 32.2 73 22.8 58 58 SSE 5 7 29.94 1014 10 16.09344 0 0
6:53 pm 18:53 Partly Cloudy 90 32.2 73 22.8 58 58 SSE 5 7 29.94 1014 10 16.09344 0 0
7:53 pm 19:53 Partly Cloudy 85 29.4 78 25.6 80 80 Calm 29.94 1014 10 16.09344 0 0
8:53 pm 20:53 Mostly Clear 84 28.9 73 22.8 70 70 NNE 5 7 29.97 1015 10 16.09344 0 0
9:53 pm 21:53 Clear 78 25.6 73 22.8 85 85 Calm 30 1016 10 16.09344 0 0
10:53 pm 22:53 Clear 78 25.6 73 22.8 85 85 NNE 3 6 30 1016 10 16.09344 0 0
11:53 pm 23:53 Clear 75 23.9 73 22.8 94 94 Calm 30 1016 10 16.09344 0 0

Powered by AerisWeather